sensor_id;sensor_type;location;lat;lon;timestamp;P1;durP1;ratioP1;P2;durP2;ratioP2
5559;SDS011;2803;47.916;8.074;2023-07-02T00:01:33;4.10;;;3.00;;
5559;SDS011;2803;47.916;8.074;2023-07-02T00:03:59;3.80;;;2.90;;
5559;SDS011;2803;47.916;8.074;2023-07-02T00:06:26;4.00;;;3.20;;
5559;SDS011;2803;47.916;8.074;2023-07-02T00:08:52;3.57;;;2.93;;
5559;SDS011;2803;47.916;8.074;2023-07-02T00:11:19;4.83;;;3.53;;
5559;SDS011;2803;47.916;8.074;2023-07-02T00:13:46;10.90;;;3.83;;
5559;SDS011;2803;47.916;8.074;2023-07-02T00:16:12;4.50;;;3.17;;
5559;SDS011;2803;47.916;8.074;2023-07-02T00:18:40;6.07;;;3.03;;
5559;SDS011;2803;47.916;8.074;2023-07-02T00:21:07;3.33;;;2.80;;
5559;SDS011;2803;47.916;8.074;2023-07-02T00:23:38;3.73;;;3.30;;
5559;SDS011;2803;47.916;8.074;2023-07-02T00:26:04;5.37;;;3.27;;
5559;SDS011;2803;47.916;8.074;2023-07-02T00:28:31;4.20;;;3.77;;
5559;SDS011;2803;47.916;8.074;2023-07-02T00:30:58;7.93;;;2.90;;
5559;SDS011;2803;47.916;8.074;2023-07-02T00:33:26;7.40;;;3.97;;
5559;SDS011;2803;47.916;8.074;2023-07-02T00:35:55;4.80;;;3.23;;
5559;SDS011;2803;47.916;8.074;2023-07-02T00:38:23;6.23;;;3.40;;
5559;SDS011;2803;47.916;8.074;2023-07-02T00:40:49;6.30;;;3.80;;
5559;SDS011;2803;47.916;8.074;2023-07-02T00:43:16;12.63;;;3.57;;
5559;SDS011;2803;47.916;8.074;2023-07-02T00:45:43;7.90;;;3.50;;
5559;SDS011;2803;47.916;8.074;2023-07-02T00:48:10;9.20;;;3.20;;
5559;SDS011;2803;47.916;8.074;2023-07-02T00:50:37;4.17;;;3.30;;
5559;SDS011;2803;47.916;8.074;2023-07-02T00:53:07;4.27;;;3.70;;
5559;SDS011;2803;47.916;8.074;2023-07-02T00:55:34;7.83;;;3.27;;
5559;SDS011;2803;47.916;8.074;2023-07-02T00:58:01;4.93;;;3.47;;
5559;SDS011;2803;47.916;8.074;2023-07-02T01:00:27;5.13;;;3.00;;
5559;SDS011;2803;47.916;8.074;2023-07-02T01:02:54;3.70;;;2.83;;
5559;SDS011;2803;47.916;8.074;2023-07-02T01:05:24;5.00;;;3.50;;
5559;SDS011;2803;47.916;8.074;2023-07-02T01:07:51;7.97;;;3.00;;
5559;SDS011;2803;47.916;8.074;2023-07-02T01:10:19;6.03;;;2.60;;
5559;SDS011;2803;47.916;8.074;2023-07-02T01:12:46;16.10;;;3.30;;
5559;SDS011;2803;47.916;8.074;2023-07-02T01:15:14;6.70;;;4.03;;
5559;SDS011;2803;47.916;8.074;2023-07-02T01:17:40;4.80;;;3.83;;
5559;SDS011;2803;47.916;8.074;2023-07-02T01:20:09;5.70;;;3.43;;
5559;SDS011;2803;47.916;8.074;2023-07-02T01:22:37;4.23;;;3.40;;
5559;SDS011;2803;47.916;8.074;2023-07-02T01:25:04;5.03;;;3.33;;
5559;SDS011;2803;47.916;8.074;2023-07-02T01:27:33;5.60;;;3.50;;
5559;SDS011;2803;47.916;8.074;2023-07-02T01:30:01;4.47;;;3.60;;
5559;SDS011;2803;47.916;8.074;2023-07-02T01:32:27;4.77;;;3.60;;
5559;SDS011;2803;47.916;8.074;2023-07-02T01:34:54;5.57;;;4.07;;
5559;SDS011;2803;47.916;8.074;2023-07-02T01:37:22;12.80;;;3.60;;
5559;SDS011;2803;47.916;8.074;2023-07-02T01:39:49;5.40;;;3.90;;
5559;SDS011;2803;47.916;8.074;2023-07-02T01:42:16;4.67;;;3.60;;
5559;SDS011;2803;47.916;8.074;2023-07-02T01:44:44;7.40;;;3.50;;
5559;SDS011;2803;47.916;8.074;2023-07-02T01:47:12;4.67;;;4.20;;
5559;SDS011;2803;47.916;8.074;2023-07-02T01:49:40;5.00;;;3.73;;
5559;SDS011;2803;47.916;8.074;2023-07-02T01:52:07;3.97;;;3.57;;
5559;SDS011;2803;47.916;8.074;2023-07-02T01:54:35;3.47;;;3.17;;
5559;SDS011;2803;47.916;8.074;2023-07-02T01:57:02;8.43;;;4.10;;
5559;SDS011;2803;47.916;8.074;2023-07-02T01:59:30;9.27;;;3.73;;
5559;SDS011;2803;47.916;8.074;2023-07-02T02:01:56;5.77;;;4.33;;
5559;SDS011;2803;47.916;8.074;2023-07-02T02:04:23;7.70;;;3.93;;
5559;SDS011;2803;47.916;8.074;2023-07-02T02:06:49;7.50;;;3.80;;
5559;SDS011;2803;47.916;8.074;2023-07-02T02:09:18;6.50;;;4.30;;
5559;SDS011;2803;47.916;8.074;2023-07-02T02:11:47;6.17;;;4.00;;
5559;SDS011;2803;47.916;8.074;2023-07-02T02:14:17;5.73;;;4.10;;
5559;SDS011;2803;47.916;8.074;2023-07-02T02:16:43;7.70;;;4.20;;
5559;SDS011;2803;47.916;8.074;2023-07-02T02:19:11;5.43;;;4.23;;
5559;SDS011;2803;47.916;8.074;2023-07-02T02:21:39;5.20;;;4.23;;
5559;SDS011;2803;47.916;8.074;2023-07-02T02:24:06;5.90;;;3.90;;
5559;SDS011;2803;47.916;8.074;2023-07-02T02:26:33;4.97;;;3.90;;
5559;SDS011;2803;47.916;8.074;2023-07-02T02:29:01;5.93;;;3.80;;
5559;SDS011;2803;47.916;8.074;2023-07-02T02:31:28;5.13;;;4.00;;
5559;SDS011;2803;47.916;8.074;2023-07-02T02:33:55;5.67;;;4.10;;
5559;SDS011;2803;47.916;8.074;2023-07-02T02:36:22;6.37;;;4.07;;
5559;SDS011;2803;47.916;8.074;2023-07-02T02:38:49;7.27;;;4.30;;
5559;SDS011;2803;47.916;8.074;2023-07-02T02:41:15;5.27;;;4.27;;
5559;SDS011;2803;47.916;8.074;2023-07-02T02:43:42;6.60;;;4.30;;
5559;SDS011;2803;47.916;8.074;2023-07-02T02:46:10;6.17;;;4.50;;
5559;SDS011;2803;47.916;8.074;2023-07-02T02:48:37;6.73;;;4.20;;
5559;SDS011;2803;47.916;8.074;2023-07-02T02:51:04;12.03;;;4.03;;
5559;SDS011;2803;47.916;8.074;2023-07-02T02:53:31;6.80;;;4.53;;
5559;SDS011;2803;47.916;8.074;2023-07-02T02:55:57;6.83;;;4.70;;
5559;SDS011;2803;47.916;8.074;2023-07-02T02:58:24;6.80;;;4.00;;
5559;SDS011;2803;47.916;8.074;2023-07-02T03:00:52;8.60;;;4.50;;
5559;SDS011;2803;47.916;8.074;2023-07-02T03:03:20;6.83;;;4.13;;
5559;SDS011;2803;47.916;8.074;2023-07-02T03:05:49;7.47;;;4.50;;
5559;SDS011;2803;47.916;8.074;2023-07-02T03:08:16;7.23;;;4.60;;
5559;SDS011;2803;47.916;8.074;2023-07-02T03:10:42;5.97;;;4.20;;
5559;SDS011;2803;47.916;8.074;2023-07-02T03:13:09;9.63;;;4.90;;
5559;SDS011;2803;47.916;8.074;2023-07-02T03:15:36;8.30;;;4.60;;
5559;SDS011;2803;47.916;8.074;2023-07-02T03:18:02;6.40;;;4.20;;
5559;SDS011;2803;47.916;8.074;2023-07-02T03:20:30;7.23;;;4.23;;
5559;SDS011;2803;47.916;8.074;2023-07-02T03:22:57;9.40;;;4.30;;
5559;SDS011;2803;47.916;8.074;2023-07-02T03:25:24;13.87;;;4.53;;
5559;SDS011;2803;47.916;8.074;2023-07-02T03:27:50;14.23;;;4.53;;
5559;SDS011;2803;47.916;8.074;2023-07-02T03:30:17;9.37;;;5.00;;
5559;SDS011;2803;47.916;8.074;2023-07-02T03:32:44;11.60;;;5.03;;
5559;SDS011;2803;47.916;8.074;2023-07-02T03:35:10;7.27;;;4.20;;
5559;SDS011;2803;47.916;8.074;2023-07-02T03:37:38;11.40;;;5.00;;
5559;SDS011;2803;47.916;8.074;2023-07-02T03:40:07;9.10;;;5.00;;
5559;SDS011;2803;47.916;8.074;2023-07-02T03:42:34;9.00;;;5.20;;
5559;SDS011;2803;47.916;8.074;2023-07-02T03:45:00;9.33;;;4.80;;
5559;SDS011;2803;47.916;8.074;2023-07-02T03:47:28;11.13;;;5.73;;
5559;SDS011;2803;47.916;8.074;2023-07-02T03:49:55;10.07;;;5.30;;
5559;SDS011;2803;47.916;8.074;2023-07-02T03:52:21;11.23;;;5.43;;
5559;SDS011;2803;47.916;8.074;2023-07-02T03:54:49;10.77;;;5.33;;
5559;SDS011;2803;47.916;8.074;2023-07-02T03:57:16;17.10;;;5.13;;
5559;SDS011;2803;47.916;8.074;2023-07-02T03:59:43;14.00;;;5.87;;
5559;SDS011;2803;47.916;8.074;2023-07-02T04:02:09;13.13;;;5.80;;
5559;SDS011;2803;47.916;8.074;2023-07-02T04:04:36;12.80;;;5.93;;
5559;SDS011;2803;47.916;8.074;2023-07-02T04:07:03;19.60;;;6.33;;
5559;SDS011;2803;47.916;8.074;2023-07-02T04:09:30;8.70;;;5.90;;
5559;SDS011;2803;47.916;8.074;2023-07-02T04:11:59;16.93;;;6.57;;
5559;SDS011;2803;47.916;8.074;2023-07-02T04:14:26;12.10;;;6.53;;
5559;SDS011;2803;47.916;8.074;2023-07-02T04:16:53;13.90;;;6.77;;
5559;SDS011;2803;47.916;8.074;2023-07-02T04:19:20;13.50;;;6.77;;
5559;SDS011;2803;47.916;8.074;2023-07-02T04:21:46;12.87;;;6.67;;
5559;SDS011;2803;47.916;8.074;2023-07-02T04:24:13;20.60;;;7.57;;
5559;SDS011;2803;47.916;8.074;2023-07-02T04:26:40;13.87;;;7.73;;
5559;SDS011;2803;47.916;8.074;2023-07-02T04:29:09;14.27;;;8.40;;
5559;SDS011;2803;47.916;8.074;2023-07-02T04:31:36;20.60;;;8.80;;
5559;SDS011;2803;47.916;8.074;2023-07-02T04:34:03;22.60;;;10.10;;
5559;SDS011;2803;47.916;8.074;2023-07-02T04:36:30;23.13;;;9.93;;
5559;SDS011;2803;47.916;8.074;2023-07-02T04:38:57;24.10;;;11.90;;
5559;SDS011;2803;47.916;8.074;2023-07-02T04:41:24;25.57;;;10.97;;
5559;SDS011;2803;47.916;8.074;2023-07-02T04:43:50;22.83;;;12.17;;
5559;SDS011;2803;47.916;8.074;2023-07-02T04:46:18;26.37;;;12.50;;
5559;SDS011;2803;47.916;8.074;2023-07-02T04:48:45;27.03;;;14.60;;
5559;SDS011;2803;47.916;8.074;2023-07-02T04:51:12;35.67;;;15.80;;
5559;SDS011;2803;47.916;8.074;2023-07-02T04:53:39;37.93;;;14.40;;
5559;SDS011;2803;47.916;8.074;2023-07-02T04:56:06;31.30;;;15.33;;
5559;SDS011;2803;47.916;8.074;2023-07-02T04:58:32;36.73;;;15.70;;
5559;SDS011;2803;47.916;8.074;2023-07-02T05:00:59;36.53;;;16.67;;
5559;SDS011;2803;47.916;8.074;2023-07-02T05:03:27;40.13;;;16.40;;
5559;SDS011;2803;47.916;8.074;2023-07-02T05:05:54;35.40;;;16.70;;
5559;SDS011;2803;47.916;8.074;2023-07-02T05:08:20;36.33;;;16.60;;
5559;SDS011;2803;47.916;8.074;2023-07-02T05:10:47;35.27;;;16.93;;
5559;SDS011;2803;47.916;8.074;2023-07-02T05:13:14;31.60;;;17.03;;
5559;SDS011;2803;47.916;8.074;2023-07-02T05:15:40;42.80;;;18.63;;
5559;SDS011;2803;47.916;8.074;2023-07-02T05:18:07;41.70;;;18.70;;
5559;SDS011;2803;47.916;8.074;2023-07-02T05:20:35;51.50;;;20.60;;
5559;SDS011;2803;47.916;8.074;2023-07-02T05:23:02;41.13;;;18.53;;
5559;SDS011;2803;47.916;8.074;2023-07-02T05:25:29;48.43;;;20.00;;
5559;SDS011;2803;47.916;8.074;2023-07-02T05:27:57;38.93;;;17.40;;
5559;SDS011;2803;47.916;8.074;2023-07-02T05:30:24;39.23;;;19.53;;
5559;SDS011;2803;47.916;8.074;2023-07-02T05:32:51;46.43;;;20.70;;
5559;SDS011;2803;47.916;8.074;2023-07-02T05:35:17;39.17;;;18.17;;
5559;SDS011;2803;47.916;8.074;2023-07-02T05:37:46;43.90;;;19.77;;
5559;SDS011;2803;47.916;8.074;2023-07-02T05:40:12;45.90;;;19.30;;
5559;SDS011;2803;47.916;8.074;2023-07-02T05:42:39;45.10;;;19.17;;
5559;SDS011;2803;47.916;8.074;2023-07-02T05:45:08;42.83;;;18.67;;
5559;SDS011;2803;47.916;8.074;2023-07-02T05:47:35;39.07;;;18.73;;
5559;SDS011;2803;47.916;8.074;2023-07-02T05:50:01;39.20;;;19.73;;
5559;SDS011;2803;47.916;8.074;2023-07-02T05:52:28;47.47;;;20.00;;
5559;SDS011;2803;47.916;8.074;2023-07-02T05:54:56;41.43;;;18.10;;
5559;SDS011;2803;47.916;8.074;2023-07-02T05:57:22;53.03;;;19.80;;
5559;SDS011;2803;47.916;8.074;2023-07-02T05:59:49;38.47;;;17.47;;
5559;SDS011;2803;47.916;8.074;2023-07-02T06:02:16;56.10;;;19.33;;
5559;SDS011;2803;47.916;8.074;2023-07-02T06:04:42;44.20;;;19.83;;
5559;SDS011;2803;47.916;8.074;2023-07-02T06:07:09;44.03;;;19.60;;
5559;SDS011;2803;47.916;8.074;2023-07-02T06:09:36;48.10;;;21.13;;
5559;SDS011;2803;47.916;8.074;2023-07-02T06:12:04;43.73;;;19.50;;
5559;SDS011;2803;47.916;8.074;2023-07-02T06:14:31;51.83;;;20.03;;
5559;SDS011;2803;47.916;8.074;2023-07-02T06:16:57;48.57;;;19.87;;
5559;SDS011;2803;47.916;8.074;2023-07-02T06:19:25;42.90;;;20.07;;
5559;SDS011;2803;47.916;8.074;2023-07-02T06:21:52;45.57;;;20.10;;
5559;SDS011;2803;47.916;8.074;2023-07-02T06:24:19;43.63;;;20.27;;
5559;SDS011;2803;47.916;8.074;2023-07-02T06:26:45;41.30;;;19.13;;
5559;SDS011;2803;47.916;8.074;2023-07-02T06:29:13;46.63;;;21.57;;
5559;SDS011;2803;47.916;8.074;2023-07-02T06:31:41;39.00;;;19.33;;
5559;SDS011;2803;47.916;8.074;2023-07-02T06:34:08;39.27;;;20.17;;
5559;SDS011;2803;47.916;8.074;2023-07-02T06:36:35;41.17;;;18.40;;
5559;SDS011;2803;47.916;8.074;2023-07-02T06:39:01;45.30;;;19.50;;
5559;SDS011;2803;47.916;8.074;2023-07-02T06:41:28;37.90;;;18.03;;
5559;SDS011;2803;47.916;8.074;2023-07-02T06:43:55;46.30;;;18.27;;
5559;SDS011;2803;47.916;8.074;2023-07-02T06:46:23;45.60;;;19.40;;
5559;SDS011;2803;47.916;8.074;2023-07-02T06:48:49;44.97;;;19.73;;
5559;SDS011;2803;47.916;8.074;2023-07-02T06:51:16;47.47;;;20.70;;
5559;SDS011;2803;47.916;8.074;2023-07-02T06:53:44;43.93;;;20.90;;
5559;SDS011;2803;47.916;8.074;2023-07-02T06:56:11;41.77;;;19.40;;
5559;SDS011;2803;47.916;8.074;2023-07-02T06:58:39;46.97;;;21.03;;
5559;SDS011;2803;47.916;8.074;2023-07-02T07:01:08;50.63;;;21.23;;
5559;SDS011;2803;47.916;8.074;2023-07-02T07:03:36;48.77;;;22.33;;
5559;SDS011;2803;47.916;8.074;2023-07-02T07:06:02;55.20;;;22.27;;
5559;SDS011;2803;47.916;8.074;2023-07-02T07:08:29;46.43;;;20.60;;
5559;SDS011;2803;47.916;8.074;2023-07-02T07:10:56;46.53;;;20.10;;
5559;SDS011;2803;47.916;8.074;2023-07-02T07:13:23;46.47;;;22.40;;
5559;SDS011;2803;47.916;8.074;2023-07-02T07:15:49;49.47;;;22.90;;
5559;SDS011;2803;47.916;8.074;2023-07-02T07:18:16;52.27;;;21.40;;
5559;SDS011;2803;47.916;8.074;2023-07-02T07:20:44;45.37;;;21.60;;
5559;SDS011;2803;47.916;8.074;2023-07-02T07:23:11;47.50;;;21.93;;
5559;SDS011;2803;47.916;8.074;2023-07-02T07:25:38;48.40;;;23.50;;
5559;SDS011;2803;47.916;8.074;2023-07-02T07:28:04;47.87;;;21.90;;
5559;SDS011;2803;47.916;8.074;2023-07-02T07:30:31;45.30;;;21.23;;
5559;SDS011;2803;47.916;8.074;2023-07-02T07:32:58;45.13;;;21.60;;
5559;SDS011;2803;47.916;8.074;2023-07-02T07:35:24;47.20;;;22.97;;
5559;SDS011;2803;47.916;8.074;2023-07-02T07:37:52;40.40;;;21.37;;
5559;SDS011;2803;47.916;8.074;2023-07-02T07:40:19;50.07;;;24.30;;
5559;SDS011;2803;47.916;8.074;2023-07-02T07:42:45;47.00;;;22.87;;
5559;SDS011;2803;47.916;8.074;2023-07-02T07:45:12;51.90;;;24.37;;
5559;SDS011;2803;47.916;8.074;2023-07-02T07:47:39;56.20;;;23.73;;
5559;SDS011;2803;47.916;8.074;2023-07-02T07:50:06;47.73;;;23.57;;
5559;SDS011;2803;47.916;8.074;2023-07-02T07:52:35;52.13;;;23.87;;
5559;SDS011;2803;47.916;8.074;2023-07-02T07:55:04;46.80;;;23.00;;
5559;SDS011;2803;47.916;8.074;2023-07-02T07:57:34;51.23;;;23.27;;
5559;SDS011;2803;47.916;8.074;2023-07-02T08:00:02;52.50;;;23.70;;
5559;SDS011;2803;47.916;8.074;2023-07-02T08:02:30;52.17;;;24.53;;
5559;SDS011;2803;47.916;8.074;2023-07-02T08:04:57;53.77;;;25.57;;
5559;SDS011;2803;47.916;8.074;2023-07-02T08:07:24;48.07;;;24.20;;
5559;SDS011;2803;47.916;8.074;2023-07-02T08:09:50;51.63;;;23.63;;
5559;SDS011;2803;47.916;8.074;2023-07-02T08:12:18;54.07;;;25.23;;
5559;SDS011;2803;47.916;8.074;2023-07-02T08:14:45;49.03;;;25.00;;
5559;SDS011;2803;47.916;8.074;2023-07-02T08:17:11;50.80;;;25.23;;
5559;SDS011;2803;47.916;8.074;2023-07-02T08:19:38;50.33;;;23.53;;
5559;SDS011;2803;47.916;8.074;2023-07-02T08:22:05;56.83;;;24.80;;
5559;SDS011;2803;47.916;8.074;2023-07-02T08:24:31;51.40;;;23.23;;
5559;SDS011;2803;47.916;8.074;2023-07-02T08:26:58;48.93;;;23.10;;
5559;SDS011;2803;47.916;8.074;2023-07-02T08:29:28;60.73;;;27.17;;
5559;SDS011;2803;47.916;8.074;2023-07-02T08:31:55;48.67;;;24.67;;
5559;SDS011;2803;47.916;8.074;2023-07-02T08:34:21;53.47;;;24.87;;
5559;SDS011;2803;47.916;8.074;2023-07-02T08:36:48;53.07;;;22.63;;
5559;SDS011;2803;47.916;8.074;2023-07-02T08:39:16;46.53;;;23.07;;
5559;SDS011;2803;47.916;8.074;2023-07-02T08:41:43;46.63;;;23.00;;
5559;SDS011;2803;47.916;8.074;2023-07-02T08:44:11;42.53;;;22.53;;
5559;SDS011;2803;47.916;8.074;2023-07-02T08:46:40;45.27;;;22.27;;
5559;SDS011;2803;47.916;8.074;2023-07-02T08:49:07;40.03;;;21.20;;
5559;SDS011;2803;47.916;8.074;2023-07-02T08:51:35;49.23;;;22.47;;
5559;SDS011;2803;47.916;8.074;2023-07-02T08:54:02;43.40;;;20.67;;
5559;SDS011;2803;47.916;8.074;2023-07-02T08:56:29;39.40;;;19.53;;
5559;SDS011;2803;47.916;8.074;2023-07-02T08:58:56;43.50;;;20.60;;
5559;SDS011;2803;47.916;8.074;2023-07-02T09:01:23;45.87;;;20.20;;
5559;SDS011;2803;47.916;8.074;2023-07-02T09:03:51;41.50;;;20.50;;
5559;SDS011;2803;47.916;8.074;2023-07-02T09:06:18;36.07;;;18.77;;
5559;SDS011;2803;47.916;8.074;2023-07-02T09:08:45;40.43;;;19.57;;
5559;SDS011;2803;47.916;8.074;2023-07-02T09:11:12;45.40;;;20.80;;
5559;SDS011;2803;47.916;8.074;2023-07-02T09:13:41;42.23;;;20.50;;
5559;SDS011;2803;47.916;8.074;2023-07-02T09:16:08;40.80;;;20.97;;
5559;SDS011;2803;47.916;8.074;2023-07-02T09:18:55;41.33;;;19.57;;
5559;SDS011;2803;47.916;8.074;2023-07-02T09:21:25;43.10;;;19.20;;
5559;SDS011;2803;47.916;8.074;2023-07-02T09:23:52;41.23;;;19.80;;
5559;SDS011;2803;47.916;8.074;2023-07-02T09:26:19;38.03;;;18.17;;
5559;SDS011;2803;47.916;8.074;2023-07-02T09:28:46;36.70;;;18.20;;
5559;SDS011;2803;47.916;8.074;2023-07-02T09:31:12;42.63;;;17.90;;
5559;SDS011;2803;47.916;8.074;2023-07-02T09:33:39;37.30;;;18.30;;
5559;SDS011;2803;47.916;8.074;2023-07-02T09:36:07;37.53;;;18.60;;
5559;SDS011;2803;47.916;8.074;2023-07-02T09:38:34;36.50;;;19.20;;
5559;SDS011;2803;47.916;8.074;2023-07-02T09:41:01;37.27;;;17.70;;
5559;SDS011;2803;47.916;8.074;2023-07-02T09:43:28;43.37;;;19.50;;
5559;SDS011;2803;47.916;8.074;2023-07-02T09:45:58;38.97;;;17.37;;
5559;SDS011;2803;47.916;8.074;2023-07-02T09:48:24;43.17;;;19.20;;
5559;SDS011;2803;47.916;8.074;2023-07-02T09:50:54;34.60;;;17.77;;
5559;SDS011;2803;47.916;8.074;2023-07-02T09:53:25;32.23;;;18.30;;
5559;SDS011;2803;47.916;8.074;2023-07-02T09:55:55;40.40;;;18.00;;
5559;SDS011;2803;47.916;8.074;2023-07-02T09:58:22;39.60;;;17.77;;
5559;SDS011;2803;47.916;8.074;2023-07-02T10:00:49;34.27;;;17.13;;
5559;SDS011;2803;47.916;8.074;2023-07-02T10:03:16;34.67;;;16.80;;
5559;SDS011;2803;47.916;8.074;2023-07-02T10:05:42;35.10;;;16.93;;
5559;SDS011;2803;47.916;8.074;2023-07-02T10:08:12;32.10;;;16.37;;
5559;SDS011;2803;47.916;8.074;2023-07-02T10:10:44;34.20;;;16.40;;
5559;SDS011;2803;47.916;8.074;2023-07-02T10:13:10;33.87;;;16.80;;
5559;SDS011;2803;47.916;8.074;2023-07-02T10:15:37;28.93;;;15.47;;
5559;SDS011;2803;47.916;8.074;2023-07-02T10:18:05;33.10;;;15.60;;
5559;SDS011;2803;47.916;8.074;2023-07-02T10:20:32;28.43;;;14.80;;
5559;SDS011;2803;47.916;8.074;2023-07-02T10:23:00;30.77;;;15.23;;
5559;SDS011;2803;47.916;8.074;2023-07-02T10:25:28;25.67;;;15.03;;
5559;SDS011;2803;47.916;8.074;2023-07-02T10:27:57;27.10;;;14.67;;
5559;SDS011;2803;47.916;8.074;2023-07-02T10:30:32;28.30;;;14.67;;
5559;SDS011;2803;47.916;8.074;2023-07-02T10:33:09;26.37;;;14.50;;
5559;SDS011;2803;47.916;8.074;2023-07-02T10:35:40;33.47;;;14.83;;
5559;SDS011;2803;47.916;8.074;2023-07-02T10:38:13;27.60;;;13.77;;
5559;SDS011;2803;47.916;8.074;2023-07-02T10:40:41;28.47;;;14.37;;
5559;SDS011;2803;47.916;8.074;2023-07-02T10:43:09;30.87;;;14.47;;
5559;SDS011;2803;47.916;8.074;2023-07-02T10:45:36;24.80;;;14.60;;
5559;SDS011;2803;47.916;8.074;2023-07-02T10:48:03;24.03;;;12.20;;
5559;SDS011;2803;47.916;8.074;2023-07-02T10:50:34;22.73;;;11.77;;
5559;SDS011;2803;47.916;8.074;2023-07-02T10:53:01;28.43;;;13.63;;
5559;SDS011;2803;47.916;8.074;2023-07-02T10:55:29;23.10;;;11.80;;
5559;SDS011;2803;47.916;8.074;2023-07-02T10:58:03;20.23;;;11.17;;
5559;SDS011;2803;47.916;8.074;2023-07-02T11:00:32;25.77;;;13.73;;
5559;SDS011;2803;47.916;8.074;2023-07-02T11:03:15;21.73;;;11.40;;
5559;SDS011;2803;47.916;8.074;2023-07-02T11:05:43;21.47;;;11.50;;
5559;SDS011;2803;47.916;8.074;2023-07-02T11:08:10;25.27;;;12.00;;
5559;SDS011;2803;47.916;8.074;2023-07-02T11:10:37;24.33;;;13.20;;
5559;SDS011;2803;47.916;8.074;2023-07-02T11:13:14;22.37;;;11.93;;
5559;SDS011;2803;47.916;8.074;2023-07-02T11:15:43;22.83;;;11.40;;
5559;SDS011;2803;47.916;8.074;2023-07-02T11:18:11;23.67;;;11.40;;
5559;SDS011;2803;47.916;8.074;2023-07-02T11:20:38;22.83;;;9.90;;
5559;SDS011;2803;47.916;8.074;2023-07-02T11:23:16;25.23;;;12.20;;
5559;SDS011;2803;47.916;8.074;2023-07-02T11:25:53;24.33;;;11.60;;
5559;SDS011;2803;47.916;8.074;2023-07-02T11:28:20;19.80;;;11.00;;
5559;SDS011;2803;47.916;8.074;2023-07-02T11:30:51;23.10;;;10.60;;
5559;SDS011;2803;47.916;8.074;2023-07-02T11:33:18;23.67;;;11.50;;
5559;SDS011;2803;47.916;8.074;2023-07-02T11:35:46;20.50;;;11.50;;
5559;SDS011;2803;47.916;8.074;2023-07-02T11:38:13;24.80;;;12.90;;
5559;SDS011;2803;47.916;8.074;2023-07-02T11:40:39;22.17;;;12.40;;
5559;SDS011;2803;47.916;8.074;2023-07-02T11:43:06;20.97;;;11.47;;
5559;SDS011;2803;47.916;8.074;2023-07-02T11:45:33;24.40;;;11.73;;
5559;SDS011;2803;47.916;8.074;2023-07-02T11:48:00;25.60;;;12.30;;
5559;SDS011;2803;47.916;8.074;2023-07-02T11:50:27;21.17;;;11.80;;
5559;SDS011;2803;47.916;8.074;2023-07-02T11:52:55;20.00;;;11.10;;
5559;SDS011;2803;47.916;8.074;2023-07-02T11:55:22;25.83;;;12.30;;
5559;SDS011;2803;47.916;8.074;2023-07-02T11:57:48;23.60;;;12.10;;
5559;SDS011;2803;47.916;8.074;2023-07-02T12:00:15;23.90;;;12.73;;
5559;SDS011;2803;47.916;8.074;2023-07-02T12:02:42;26.13;;;12.60;;
5559;SDS011;2803;47.916;8.074;2023-07-02T12:05:10;20.97;;;12.10;;
5559;SDS011;2803;47.916;8.074;2023-07-02T12:07:36;21.50;;;11.73;;
5559;SDS011;2803;47.916;8.074;2023-07-02T12:10:03;23.60;;;12.00;;
5559;SDS011;2803;47.916;8.074;2023-07-02T12:12:30;27.17;;;13.40;;
5559;SDS011;2803;47.916;8.074;2023-07-02T12:14:57;25.57;;;12.80;;
5559;SDS011;2803;47.916;8.074;2023-07-02T12:17:23;23.10;;;11.93;;
5559;SDS011;2803;47.916;8.074;2023-07-02T12:19:50;26.27;;;12.83;;
5559;SDS011;2803;47.916;8.074;2023-07-02T12:22:18;24.00;;;11.90;;
5559;SDS011;2803;47.916;8.074;2023-07-02T12:24:47;28.07;;;12.20;;
5559;SDS011;2803;47.916;8.074;2023-07-02T12:27:14;26.70;;;12.83;;
5559;SDS011;2803;47.916;8.074;2023-07-02T12:29:41;24.30;;;11.97;;
5559;SDS011;2803;47.916;8.074;2023-07-02T12:32:08;21.00;;;11.30;;
5559;SDS011;2803;47.916;8.074;2023-07-02T12:34:34;26.00;;;13.60;;
5559;SDS011;2803;47.916;8.074;2023-07-02T12:37:01;23.53;;;11.67;;
5559;SDS011;2803;47.916;8.074;2023-07-02T12:39:30;19.47;;;11.30;;
5559;SDS011;2803;47.916;8.074;2023-07-02T12:41:57;22.90;;;11.40;;
5559;SDS011;2803;47.916;8.074;2023-07-02T12:44:23;23.90;;;11.33;;
5559;SDS011;2803;47.916;8.074;2023-07-02T12:46:50;17.10;;;9.00;;
5559;SDS011;2803;47.916;8.074;2023-07-02T12:49:16;19.63;;;10.20;;
5559;SDS011;2803;47.916;8.074;2023-07-02T12:51:43;21.47;;;11.43;;
5559;SDS011;2803;47.916;8.074;2023-07-02T12:54:09;21.50;;;10.63;;
5559;SDS011;2803;47.916;8.074;2023-07-02T12:56:37;16.93;;;10.17;;
5559;SDS011;2803;47.916;8.074;2023-07-02T12:59:04;21.10;;;10.13;;
5559;SDS011;2803;47.916;8.074;2023-07-02T13:01:30;16.90;;;9.07;;
5559;SDS011;2803;47.916;8.074;2023-07-02T13:03:57;16.63;;;8.83;;
5559;SDS011;2803;47.916;8.074;2023-07-02T13:06:24;15.93;;;8.97;;
5559;SDS011;2803;47.916;8.074;2023-07-02T13:08:51;14.97;;;8.97;;
5559;SDS011;2803;47.916;8.074;2023-07-02T13:11:17;17.47;;;8.70;;
5559;SDS011;2803;47.916;8.074;2023-07-02T13:13:45;14.70;;;8.97;;
5559;SDS011;2803;47.916;8.074;2023-07-02T13:16:12;18.00;;;9.90;;
5559;SDS011;2803;47.916;8.074;2023-07-02T13:18:39;16.27;;;8.73;;
5559;SDS011;2803;47.916;8.074;2023-07-02T13:21:05;19.33;;;9.77;;
5559;SDS011;2803;47.916;8.074;2023-07-02T13:23:32;18.97;;;10.20;;
5559;SDS011;2803;47.916;8.074;2023-07-02T13:25:59;23.30;;;10.30;;
5559;SDS011;2803;47.916;8.074;2023-07-02T13:28:25;20.47;;;10.33;;
5559;SDS011;2803;47.916;8.074;2023-07-02T13:30:54;18.53;;;9.70;;
5559;SDS011;2803;47.916;8.074;2023-07-02T13:33:21;20.30;;;11.10;;
5559;SDS011;2803;47.916;8.074;2023-07-02T13:35:47;21.37;;;12.27;;
5559;SDS011;2803;47.916;8.074;2023-07-02T13:38:14;18.93;;;11.07;;
5559;SDS011;2803;47.916;8.074;2023-07-02T13:40:40;27.87;;;12.90;;
5559;SDS011;2803;47.916;8.074;2023-07-02T13:43:07;27.37;;;14.13;;
5559;SDS011;2803;47.916;8.074;2023-07-02T13:45:34;27.33;;;14.73;;
5559;SDS011;2803;47.916;8.074;2023-07-02T13:48:02;30.13;;;16.40;;
5559;SDS011;2803;47.916;8.074;2023-07-02T13:50:30;34.50;;;19.03;;
5559;SDS011;2803;47.916;8.074;2023-07-02T13:52:56;39.60;;;20.73;;
5559;SDS011;2803;47.916;8.074;2023-07-02T13:55:23;29.10;;;17.43;;
5559;SDS011;2803;47.916;8.074;2023-07-02T13:57:53;35.80;;;19.13;;
5559;SDS011;2803;47.916;8.074;2023-07-02T14:00:22;37.13;;;19.37;;
5559;SDS011;2803;47.916;8.074;2023-07-02T14:02:48;33.43;;;19.10;;
5559;SDS011;2803;47.916;8.074;2023-07-02T14:05:15;39.93;;;20.60;;
5559;SDS011;2803;47.916;8.074;2023-07-02T14:07:42;36.70;;;20.30;;
5559;SDS011;2803;47.916;8.074;2023-07-02T14:10:08;41.47;;;19.30;;
5559;SDS011;2803;47.916;8.074;2023-07-02T14:12:37;33.27;;;19.50;;
5559;SDS011;2803;47.916;8.074;2023-07-02T14:15:04;35.30;;;19.23;;
5559;SDS011;2803;47.916;8.074;2023-07-02T14:17:32;36.20;;;20.23;;
5559;SDS011;2803;47.916;8.074;2023-07-02T14:19:59;37.00;;;21.03;;
5559;SDS011;2803;47.916;8.074;2023-07-02T14:22:26;38.17;;;19.80;;
5559;SDS011;2803;47.916;8.074;2023-07-02T14:24:53;36.80;;;18.33;;
5559;SDS011;2803;47.916;8.074;2023-07-02T14:27:19;39.60;;;19.33;;
5559;SDS011;2803;47.916;8.074;2023-07-02T14:29:46;40.43;;;20.93;;
5559;SDS011;2803;47.916;8.074;2023-07-02T14:32:13;33.53;;;17.57;;
5559;SDS011;2803;47.916;8.074;2023-07-02T14:34:41;62.97;;;36.77;;
5559;SDS011;2803;47.916;8.074;2023-07-02T14:37:08;42.43;;;25.53;;
5559;SDS011;2803;47.916;8.074;2023-07-02T14:39:35;38.03;;;20.90;;
5559;SDS011;2803;47.916;8.074;2023-07-02T14:42:02;31.27;;;17.47;;
5559;SDS011;2803;47.916;8.074;2023-07-02T14:44:31;29.53;;;16.07;;
5559;SDS011;2803;47.916;8.074;2023-07-02T14:46:57;67.40;;;37.03;;
5559;SDS011;2803;47.916;8.074;2023-07-02T14:49:24;39.73;;;21.90;;
5559;SDS011;2803;47.916;8.074;2023-07-02T14:51:52;31.77;;;17.10;;
5559;SDS011;2803;47.916;8.074;2023-07-02T14:54:19;32.13;;;16.87;;
5559;SDS011;2803;47.916;8.074;2023-07-02T14:56:45;37.73;;;19.60;;